Uniontown, WA (99179)

6:27 PM PDT on September 02, 2015 (GMT -0700)
Town of Colton | | Change Station
CLOSE
Current Station
Personal Weather Station
Location: Colton, WA
Elevation: 2579 ft
Nearby Weather Stations

Elev 2579 ft 46.57 °N, 117.12 °W | Updated 2 minutes ago

Overcast
Overcast
56.7 °F
Feels Like 56.7 °F
N
0.0
Wind Variable Wind from SW
Gusts 0.0 mph

Today
High -- | Low -- °F
--% Chance of Precip.
Yesterday
High -- | Low -- °F
Precip. -- in
6:09 AM 7:25 PM
Waning Gibbous, 75% visible
Pressure 29.85 in
Visibility 10.0 miles
Clouds Scattered Clouds 6500 ft
Overcast 12000 ft
Dew Point 50 °F
Humidity 78%
Rainfall 0.07 in
Snow Depth Not available.
UV 0 out of 12
Pollen 7.70 out of 12
Air Quality Not available.
Flu Activity Not available.
METAR KLWS 030056Z 30005KT 10SM SCT065 OVC120 19/06 A2986 RMK AO2 SLP108 T01940061
Pressure 29.85 in
Visibility 10.0 miles
Clouds Scattered Clouds 6500 ft
Overcast 12000 ft
Dew Point 50 °F
Humidity 78%
Rainfall 0.07 in
Snow Depth Not available.
UV 0 out of 12
Pollen 7.70 out of 12
Air Quality Not available.
Flu Activity Not available.
METAR KLWS 030056Z 30005KT 10SM SCT065 OVC120 19/06 A2986 RMK AO2 SLP108 T01940061

10-Day Weather Forecast

×

Almanac

Astronomy

Sep. 02, 2015 Rise Set
Actual Time
Civil Twilight
Nautical Twilight
Astronomical Twilight
Moon
Length of Visible Light
Length of Day
Tomorrow will be .
, % of the Moon is Illuminated

Today's Extremes

State Highs State Lows

Community

WunderPhotos

Upload Photos

1,851,865 photos uploaded!

WunderBlogs® & News

Nearby

Air Quality

  Air Quality AQ Index Pollutant
Not available.

Snow Depth

Station Depth Elevation

Earthquake Activity

City Distance Mag. Time & Date
Minimum magnitude displayed is 2.5.

Coastal Water Temperatures

Place Temperature

Stations

Nearby Weather Stations

Station Location Temp. Windchill Dew Point Humidity Wind Precip. Elev Updated Type